Time;durP1;ratioP1;P1;durP2;ratioP2;P2;SDS_P1;SDS_P2;PMS_P1;PMS_P2;Temp;Humidity;BMP_temperature;BMP_pressure;BME280_temperature;BME280_humidity;BME280_pressure;Samples;Min_cycle;Max_cycle;Signal;HPM_P1;HPM_P2
2023/08/31 00:00:11;;;;;;;10.57;4.15;;;;;;;10.79;100.00;92591.09;2118906;27;20027;-79
2023/08/31 00:01:13;;;;;;;18.30;4.30;;;;;;;10.75;100.00;92587.78;2118155;27;20800;-79
2023/08/31 00:02:14;;;;;;;9.32;4.22;;;;;;;10.73;100.00;92590.13;2116131;27;20015;-79
2023/08/31 00:03:15;;;;;;;8.98;4.70;;;;;;;10.92;100.00;92597.16;2118426;27;20388;-79
2023/08/31 00:04:16;;;;;;;9.80;4.30;;;;;;;10.88;100.00;92596.53;2120067;27;20418;-79
2023/08/31 00:05:17;;;;;;;6.18;3.88;;;;;;;10.74;100.00;92592.38;2114654;27;20028;-79
2023/08/31 00:06:18;;;;;;;9.48;4.32;;;;;;;10.71;100.00;92590.56;2117307;27;20114;-79
2023/08/31 00:07:22;;;;;;;18.23;4.32;;;;;;;10.62;100.00;92601.13;2112094;27;20023;-79
2023/08/31 00:08:23;;;;;;;8.95;4.25;;;;;;;10.58;100.00;92595.91;2118162;27;20084;-79
2023/08/31 00:09:24;;;;;;;8.27;4.72;;;;;;;10.53;100.00;92601.78;2112344;28;20024;-79
2023/08/31 00:10:25;;;;;;;13.70;4.47;;;;;;;10.46;100.00;92603.94;2118294;27;20058;-79
2023/08/31 00:11:28;;;;;;;11.32;4.05;;;;;;;10.46;100.00;92598.59;2117925;27;20021;-79
2023/08/31 00:12:30;;;;;;;8.88;3.90;;;;;;;10.45;100.00;92599.78;2115362;27;20490;-80
2023/08/31 00:13:31;;;;;;;7.57;3.75;;;;;;;10.43;100.00;92605.53;2109753;28;20124;-79
2023/08/31 00:14:32;;;;;;;5.65;3.70;;;;;;;10.41;100.00;92604.47;2099051;28;20031;-79
2023/08/31 00:15:35;;;;;;;12.88;3.58;;;;;;;10.41;100.00;92605.22;2115240;27;20035;-79
2023/08/31 00:16:36;;;;;;;8.48;4.03;;;;;;;10.54;100.00;92602.56;2117950;27;20113;-79
2023/08/31 00:17:37;;;;;;;6.97;4.13;;;;;;;10.43;100.00;92602.84;2109333;28;20106;-79
2023/08/31 00:18:38;;;;;;;10.35;4.20;;;;;;;10.43;100.00;92599.44;2109756;28;20024;-79
2023/08/31 00:19:39;;;;;;;9.73;3.85;;;;;;;10.30;100.00;92608.19;2118589;27;20439;-79
2023/08/31 00:20:40;;;;;;;8.32;3.78;;;;;;;10.48;100.00;92604.25;2117563;27;20027;-79
2023/08/31 00:21:42;;;;;;;8.85;3.78;;;;;;;10.47;100.00;92602.75;2118145;27;20059;-79
2023/08/31 00:22:43;;;;;;;9.88;3.83;;;;;;;10.44;100.00;92598.25;2118959;27;20103;-79
2023/08/31 00:23:44;;;;;;;11.82;3.95;;;;;;;10.45;100.00;92597.84;2118089;27;20015;-78
2023/08/31 00:24:45;;;;;;;7.18;3.70;;;;;;;10.42;100.00;92596.03;2109337;28;20031;-78
2023/08/31 00:25:47;;;;;;;11.40;3.78;;;;;;;10.43;100.00;92602.09;2109101;28;20182;-80
2023/08/31 00:26:51;;;;;;;8.82;3.42;;;;;;;10.38;100.00;92597.28;2102141;28;20472;-77
2023/08/31 00:27:53;;;;;;;10.27;3.65;;;;;;;10.32;100.00;92602.44;2115506;27;20455;-77
2023/08/31 00:28:54;;;;;;;11.57;4.10;;;;;;;10.30;100.00;92602.09;2117800;27;20459;-77
2023/08/31 00:29:55;;;;;;;7.22;3.80;;;;;;;10.27;100.00;92603.72;2118838;27;20027;-77
2023/08/31 00:30:57;;;;;;;10.43;3.65;;;;;;;10.32;100.00;92603.19;2118909;27;20062;-78
2023/08/31 00:31:58;;;;;;;9.07;3.60;;;;;;;10.24;100.00;92601.88;2117837;27;20476;-77
2023/08/31 00:33:00;;;;;;;8.55;3.70;;;;;;;10.17;100.00;92604.72;2118414;27;20042;-78
2023/08/31 00:34:04;;;;;;;9.82;4.13;;;;;;;10.21;100.00;92609.97;2109630;28;20035;-78
2023/08/31 00:35:05;;;;;;;11.55;4.18;;;;;;;10.24;100.00;92609.91;2110356;27;20031;-77
2023/08/31 00:36:07;;;;;;;8.90;4.30;;;;;;;10.27;100.00;92611.72;2118287;27;20035;-77
2023/08/31 00:37:08;;;;;;;8.98;3.85;;;;;;;10.24;100.00;92609.13;2117810;27;20081;-78
2023/08/31 00:38:09;;;;;;;11.25;3.95;;;;;;;10.23;100.00;92602.28;2118727;27;20035;-77
2023/08/31 00:39:11;;;;;;;8.35;3.67;;;;;;;10.23;100.00;92611.03;2119979;27;20102;-77
2023/08/31 00:40:13;;;;;;;11.55;3.88;;;;;;;10.23;100.00;92611.03;2117981;27;20053;-77
2023/08/31 00:41:15;;;;;;;12.00;4.68;;;;;;;10.22;100.00;92609.53;2117255;27;20027;-78
2023/08/31 00:42:15;;;;;;;10.45;3.95;;;;;;;10.19;100.00;92606.97;2116182;27;20034;-77
2023/08/31 00:43:17;;;;;;;9.10;3.88;;;;;;;10.09;100.00;92598.06;2113376;28;20461;-77
2023/08/31 00:44:19;;;;;;;10.82;3.67;;;;;;;10.21;100.00;92604.63;2120639;27;20026;-77
2023/08/31 00:45:20;;;;;;;8.52;4.18;;;;;;;10.14;100.00;92605.59;2118522;27;20034;-78
2023/08/31 00:46:21;;;;;;;7.75;3.70;;;;;;;10.24;100.00;92604.56;2117293;27;20034;-80
2023/08/31 00:47:22;;;;;;;9.55;4.40;;;;;;;10.21;100.00;92601.94;2120362;27;20030;-78
2023/08/31 00:48:24;;;;;;;8.40;4.05;;;;;;;10.20;100.00;92611.16;2113552;28;20066;-78
2023/08/31 00:49:25;;;;;;;7.85;3.90;;;;;;;10.06;100.00;92602.34;2105162;27;20044;-77
2023/08/31 00:50:26;;;;;;;10.07;4.18;;;;;;;10.05;100.00;92598.19;2117785;27;20080;-81
2023/08/31 00:51:27;;;;;;;16.85;4.20;;;;;;;10.17;100.00;92603.97;2109884;28;20376;-78
2023/08/31 00:52:28;;;;;;;11.65;4.45;;;;;;;10.20;100.00;92598.53;2108029;28;20040;-78
2023/08/31 00:53:30;;;;;;;10.27;5.00;;;;;;;10.29;100.00;92598.69;2117853;27;20428;-78
2023/08/31 00:54:31;;;;;;;6.28;4.18;;;;;;;10.15;100.00;92596.41;2116658;27;20028;-78
2023/08/31 00:55:32;;;;;;;7.18;3.97;;;;;;;10.06;100.00;92602.34;2116573;27;20089;-78
2023/08/31 00:56:33;;;;;;;6.85;4.15;;;;;;;10.08;100.00;92600.00;2118360;27;20138;-78
2023/08/31 00:57:34;;;;;;;12.45;4.07;;;;;;;10.15;100.00;92609.00;2117298;27;20268;-78
2023/08/31 00:58:35;;;;;;;6.20;4.05;;;;;;;10.15;100.00;92606.31;2118388;27;20035;-78
2023/08/31 00:59:36;;;;;;;7.22;3.72;;;;;;;10.08;100.00;92602.66;2118183;27;20110;-78
2023/08/31 01:00:49;;;;;;;8.63;4.07;;;;;;;10.00;100.00;92606.72;2118660;27;20042;-79
2023/08/31 01:02:07;;;;;;;11.60;3.58;;;;;;;9.92;100.00;92605.44;2117911;27;20077;-79
2023/08/31 01:03:49;;;;;;;7.43;3.95;;;;;;;9.94;100.00;92605.75;2107162;28;20030;-79
2023/08/31 01:04:55;;;;;;;5.63;3.90;;;;;;;9.89;100.00;92603.59;2113800;27;20032;-79
2023/08/31 01:06:15;;;;;;;11.07;4.32;;;;;;;9.95;100.00;92609.91;2103416;27;20023;-79
2023/08/31 01:07:28;;;;;;;6.57;3.92;;;;;;;9.96;100.00;92606.06;2108691;28;20059;-80
2023/08/31 01:08:47;;;;;;;5.85;3.50;;;;;;;9.79;100.00;92607.31;2115602;27;20430;-79
2023/08/31 01:10:14;;;;;;;10.30;3.30;;;;;;;9.88;100.00;92614.69;2105168;28;20027;-78
2023/08/31 01:11:31;;;;;;;10.85;3.72;;;;;;;9.93;100.00;92606.19;2113496;27;20529;-79
2023/08/31 01:12:47;;;;;;;5.85;3.30;;;;;;;9.84;100.00;92607.53;2117048;27;20384;-79
2023/08/31 01:13:59;;;;;;;7.03;3.45;;;;;;;9.71;100.00;92606.00;2117864;27;20114;-79
2023/08/31 01:15:09;;;;;;;9.65;3.35;;;;;;;9.71;100.00;92603.34;2118328;27;20474;-79
2023/08/31 01:16:12;;;;;;;6.57;3.70;;;;;;;9.73;100.00;92600.97;2118285;27;20031;-79
2023/08/31 01:17:15;;;;;;;7.35;3.63;;;;;;;9.67;100.00;92600.00;2101014;28;20486;-79
2023/08/31 01:18:21;;;;;;;11.43;3.78;;;;;;;9.71;100.00;92598.00;2109683;28;20020;-79
2023/08/31 01:19:44;;;;;;;8.38;3.40;;;;;;;9.72;100.00;92599.50;2110353;27;20024;-79
2023/08/31 01:21:14;;;;;;;9.35;4.32;;;;;;;9.75;100.00;92596.72;2116694;27;20079;-79
2023/08/31 01:22:45;;;;;;;10.00;4.07;;;;;;;9.68;100.00;92588.91;2111731;27;20413;-78
2023/08/31 01:23:58;;;;;;;7.47;3.88;;;;;;;9.71;100.00;92590.00;2118307;27;20114;-79
2023/08/31 01:25:04;;;;;;;12.43;4.50;;;;;;;9.76;100.00;92592.13;2117526;27;20399;-79
2023/08/31 01:26:05;;;;;;;8.50;4.35;;;;;;;9.74;100.00;92589.88;2108896;28;20040;-79
2023/08/31 01:27:06;;;;;;;10.68;4.28;;;;;;;9.65;100.00;92591.66;2101009;28;20483;-79
2023/08/31 01:28:07;;;;;;;8.75;4.10;;;;;;;9.57;100.00;92593.78;2110472;28;20065;-79
2023/08/31 01:29:09;;;;;;;7.93;4.00;;;;;;;9.62;100.00;92592.53;2116867;27;20102;-79
2023/08/31 01:30:10;;;;;;;9.13;4.38;;;;;;;9.49;100.00;92595.88;2118183;27;20034;-79
2023/08/31 01:31:11;;;;;;;7.43;4.00;;;;;;;9.42;100.00;92601.41;2118235;27;20047;-79
2023/08/31 01:32:12;;;;;;;11.90;4.45;;;;;;;9.43;100.00;92591.47;2109367;28;20038;-79
2023/08/31 01:33:13;;;;;;;8.00;4.22;;;;;;;9.39;100.00;92599.56;2117925;27;20084;-79
2023/08/31 01:34:14;;;;;;;9.40;3.70;;;;;;;9.46;100.00;92588.72;2117667;27;20106;-80
2023/08/31 01:35:18;;;;;;;9.05;3.90;;;;;;;9.39;100.00;92585.47;2118384;27;20031;-79
2023/08/31 01:36:34;;;;;;;10.32;3.88;;;;;;;9.32;100.00;92594.44;2119177;27;20422;-79
2023/08/31 01:37:45;;;;;;;7.28;3.58;;;;;;;9.31;100.00;92592.94;2110405;27;20820;-79
2023/08/31 01:38:50;;;;;;;7.95;3.63;;;;;;;9.26;100.00;92593.44;2117592;27;20023;-79
2023/08/31 01:40:06;;;;;;;6.55;3.95;;;;;;;9.21;100.00;92592.00;2117506;27;20101;-80
2023/08/31 01:41:09;;;;;;;8.30;3.47;;;;;;;9.13;100.00;92596.06;2116495;27;20031;-79
2023/08/31 01:42:13;;;;;;;6.13;3.25;;;;;;;9.15;100.00;92593.69;2117301;27;20034;-79
2023/08/31 01:43:16;;;;;;;7.50;3.47;;;;;;;9.13;100.00;92597.94;2116944;27;20019;-79
2023/08/31 01:44:19;;;;;;;11.95;3.72;;;;;;;9.15;100.00;92600.97;2119543;27;20030;-79
2023/08/31 01:45:22;;;;;;;6.00;3.40;;;;;;;9.03;100.00;92605.78;2108992;28;20020;-79
2023/08/31 01:46:23;;;;;;;11.50;3.38;;;;;;;9.04;100.00;92603.88;2100335;28;20496;-79
2023/08/31 01:47:25;;;;;;;6.72;4.13;;;;;;;8.95;100.00;92601.78;2108401;28;20020;-79
2023/08/31 01:48:26;;;;;;;9.73;3.85;;;;;;;8.96;100.00;92605.97;2108990;28;20030;-80
2023/08/31 01:49:27;;;;;;;12.38;3.80;;;;;;;8.83;100.00;92605.91;2101675;28;20020;-79
2023/08/31 01:50:28;;;;;;;8.85;4.05;;;;;;;8.71;100.00;92611.88;2112282;28;20027;-79
2023/08/31 01:51:29;;;;;;;6.22;4.05;;;;;;;8.68;100.00;92610.03;2108365;28;20034;-79
2023/08/31 01:52:30;;;;;;;5.30;3.33;;;;;;;8.71;100.00;92613.78;2116837;27;20023;-79
2023/08/31 01:53:31;;;;;;;7.63;3.13;;;;;;;8.80;100.00;92616.63;2117377;27;20023;-79
2023/08/31 01:54:32;;;;;;;7.82;3.72;;;;;;;8.76;100.00;92614.03;2114190;28;20127;-79
2023/08/31 01:55:33;;;;;;;6.03;3.58;;;;;;;8.76;100.00;92616.72;2117417;27;20030;-79
2023/08/31 01:56:36;;;;;;;5.63;3.63;;;;;;;8.72;100.00;92618.69;2108607;28;20426;-79
2023/08/31 01:57:37;;;;;;;4.80;3.50;;;;;;;8.83;100.00;92619.22;2116817;27;20107;-80
2023/08/31 01:58:38;;;;;;;9.68;4.10;;;;;;;8.70;100.00;92622.97;2118054;27;20026;-79
2023/08/31 01:59:39;;;;;;;12.63;3.70;;;;;;;8.73;100.00;92622.84;2116561;27;20552;-79
2023/08/31 02:00:40;;;;;;;6.40;3.63;;;;;;;8.79;100.00;92625.78;2109123;28;20560;-79
2023/08/31 02:01:41;;;;;;;6.63;3.53;;;;;;;8.78;100.00;92625.06;2117022;27;20054;-79
2023/08/31 02:02:42;;;;;;;7.68;4.13;;;;;;;8.70;100.00;92626.38;2113369;28;20399;-79
2023/08/31 02:03:43;;;;;;;8.57;4.05;;;;;;;8.64;100.00;92630.69;2117215;27;20030;-79
2023/08/31 02:04:43;;;;;;;7.50;3.92;;;;;;;8.58;100.00;92627.75;2116897;27;20486;-79
2023/08/31 02:05:44;;;;;;;7.63;3.85;;;;;;;8.58;100.00;92627.03;2116363;28;20023;-79
2023/08/31 02:06:45;;;;;;;8.63;3.78;;;;;;;8.64;100.00;92630.69;2117573;27;20054;-79
2023/08/31 02:07:46;;;;;;;11.75;3.75;;;;;;;8.60;100.00;92626.59;2116949;27;20027;-79
2023/08/31 02:08:47;;;;;;;10.02;4.32;;;;;;;8.66;100.00;92636.34;2117805;27;20016;-78
2023/08/31 02:09:48;;;;;;;11.55;4.45;;;;;;;8.69;100.00;92629.44;2118541;27;20110;-79
2023/08/31 02:10:49;;;;;;;7.82;4.30;;;;;;;8.64;100.00;92637.91;2116309;27;20401;-79
2023/08/31 02:11:50;;;;;;;8.77;4.53;;;;;;;8.65;100.00;92634.09;2117292;27;20043;-79
2023/08/31 02:12:51;;;;;;;10.57;4.70;;;;;;;8.62;100.00;92634.94;2108324;28;20024;-79
2023/08/31 02:13:52;;;;;;;12.77;3.65;;;;;;;8.61;100.00;92641.44;2113202;27;20050;-79
2023/08/31 02:14:53;;;;;;;6.93;3.95;;;;;;;8.54;100.00;92637.75;2108255;28;20108;-79
2023/08/31 02:15:54;;;;;;;9.68;3.88;;;;;;;8.55;100.00;92639.25;2099100;28;20093;-79
2023/08/31 02:16:55;;;;;;;8.35;3.78;;;;;;;8.63;100.00;92629.19;2100320;28;20020;-79
2023/08/31 02:17:56;;;;;;;14.20;3.80;;;;;;;8.70;100.00;92636.28;2108466;28;20027;-79
2023/08/31 02:18:58;;;;;;;12.50;4.35;;;;;;;8.82;100.00;92638.28;2108957;28;20793;-79
2023/08/31 02:20:00;;;;;;;7.00;3.88;;;;;;;8.84;100.00;92633.28;2118272;27;20039;-80
2023/08/31 02:21:01;;;;;;;9.70;4.13;;;;;;;8.88;100.00;92638.53;2116782;27;20027;-79
2023/08/31 02:22:02;;;;;;;12.02;4.35;;;;;;;8.89;100.00;92637.38;2108932;28;20369;-79
2023/08/31 02:23:03;;;;;;;10.40;4.05;;;;;;;8.93;100.00;92641.44;2116373;27;20538;-79
2023/08/31 02:24:05;;;;;;;9.20;3.72;;;;;;;8.92;100.00;92637.28;2117294;27;20094;-79
2023/08/31 02:25:06;;;;;;;12.52;4.05;;;;;;;8.97;100.00;92628.03;2117102;27;20110;-79
2023/08/31 02:26:07;;;;;;;10.52;4.15;;;;;;;8.94;100.00;92628.88;2117524;27;20031;-80
2023/08/31 02:27:08;;;;;;;9.75;4.32;;;;;;;8.91;100.00;92633.13;2117769;27;20077;-80
2023/08/31 02:28:09;;;;;;;8.35;3.95;;;;;;;8.88;100.00;92638.53;2117539;27;20388;-79
2023/08/31 02:29:10;;;;;;;4.95;3.83;;;;;;;8.88;100.00;92641.22;2116477;27;20535;-79
2023/08/31 02:30:11;;;;;;;6.07;3.42;;;;;;;8.88;100.00;92636.63;2117099;27;20042;-79
2023/08/31 02:31:13;;;;;;;11.23;3.80;;;;;;;8.95;100.00;92638.34;2109699;28;20337;-79
2023/08/31 02:32:16;;;;;;;11.93;4.15;;;;;;;8.89;100.00;92643.44;2117381;27;20038;-79
2023/08/31 02:33:17;;;;;;;11.32;3.92;;;;;;;8.89;100.00;92642.69;2117438;27;20080;-79
2023/08/31 02:34:18;;;;;;;8.65;3.78;;;;;;;8.85;100.00;92647.34;2115679;27;20480;-79
2023/08/31 02:35:18;;;;;;;6.18;3.92;;;;;;;8.83;100.00;92640.53;2120864;27;20269;-79
2023/08/31 02:36:21;;;;;;;11.07;4.45;;;;;;;8.81;100.00;92640.19;2116710;28;20483;-79
2023/08/31 02:37:22;;;;;;;8.30;4.10;;;;;;;8.73;100.00;92638.84;2096183;28;20027;-79
2023/08/31 02:38:23;;;;;;;12.43;4.30;;;;;;;8.65;100.00;92645.53;2108157;28;20054;-79
2023/08/31 02:39:24;;;;;;;8.10;3.55;;;;;;;8.66;100.00;92641.69;2111705;28;20472;-79
2023/08/31 02:40:25;;;;;;;6.47;3.50;;;;;;;8.65;100.00;92645.53;2117040;28;20016;-79
2023/08/31 02:41:26;;;;;;;10.65;3.47;;;;;;;8.72;100.00;92648.00;2111868;28;20094;-79
2023/08/31 02:42:27;;;;;;;11.48;4.40;;;;;;;8.74;100.00;92644.94;2118849;28;20027;-79
2023/08/31 02:43:30;;;;;;;8.77;4.28;;;;;;;8.70;100.00;92645.03;2116492;28;20031;-79
2023/08/31 02:44:31;;;;;;;13.23;4.25;;;;;;;8.63;100.00;92639.09;2107858;28;20143;-79
2023/08/31 02:45:32;;;;;;;9.85;3.60;;;;;;;8.64;100.00;92640.59;2108613;28;20384;-80
2023/08/31 02:46:35;;;;;;;13.95;3.45;;;;;;;8.60;100.00;92634.59;2110369;28;20027;-79
2023/08/31 02:47:36;;;;;;;11.43;3.83;;;;;;;8.47;100.00;92639.81;2116653;28;20030;-79
2023/08/31 02:48:38;;;;;;;8.30;4.05;;;;;;;8.46;100.00;92641.72;2117992;28;20034;-79
2023/08/31 02:49:39;;;;;;;6.75;3.67;;;;;;;8.53;100.00;92627.50;2115676;28;20368;-79
2023/08/31 02:50:40;;;;;;;6.47;4.10;;;;;;;8.62;100.00;92633.03;2116942;28;20031;-79
2023/08/31 02:51:41;;;;;;;6.47;3.38;;;;;;;8.61;100.00;92630.78;2117698;28;20027;-79
2023/08/31 02:52:42;;;;;;;8.32;3.60;;;;;;;8.49;100.00;92629.50;2116540;28;20036;-79
2023/08/31 02:53:43;;;;;;;19.13;3.88;;;;;;;8.51;100.00;92624.50;2117148;28;20020;-80
2023/08/31 02:54:44;;;;;;;45.78;4.55;;;;;;;8.53;100.00;92625.59;2118844;28;20050;-79
2023/08/31 02:55:45;;;;;;;54.03;4.25;;;;;;;8.38;100.00;92629.72;2117844;28;20024;-79
2023/08/31 02:56:46;;;;;;;81.07;4.53;;;;;;;8.26;100.00;92631.09;2116497;28;20030;-79
2023/08/31 02:57:47;;;;;;;89.53;4.43;;;;;;;8.23;100.00;92633.81;2112578;28;20023;-79
2023/08/31 02:58:48;;;;;;;25.10;3.40;;;;;;;8.24;100.00;92630.00;2108588;28;20024;-80
2023/08/31 02:59:50;;;;;;;27.23;3.88;;;;;;;8.35;100.00;92630.53;2118903;28;20027;-79
2023/08/31 03:00:51;;;;;;;24.83;4.13;;;;;;;8.49;100.00;92632.16;2116666;27;20661;-79
2023/08/31 03:01:52;;;;;;;25.70;4.72;;;;;;;8.48;100.00;92628.75;2113605;28;20099;-79
2023/08/31 03:02:53;;;;;;;15.45;4.22;;;;;;;8.47;100.00;92624.59;2113801;28;20120;-79
2023/08/31 03:03:54;;;;;;;8.88;4.18;;;;;;;8.44;100.00;92633.41;2117023;28;20034;-79
2023/08/31 03:04:55;;;;;;;57.97;5.57;;;;;;;8.49;100.00;92630.25;2119147;27;20035;-80
2023/08/31 03:05:56;;;;;;;52.97;4.80;;;;;;;8.48;100.00;92634.09;2116194;28;20163;-80
2023/08/31 03:06:57;;;;;;;40.20;4.90;;;;;;;8.47;100.00;92629.94;2117058;28;20027;-79
2023/08/31 03:07:58;;;;;;;11.13;4.35;;;;;;;8.45;100.00;92634.91;2115037;28;20026;-79
2023/08/31 03:08:59;;;;;;;21.55;4.82;;;;;;;8.36;100.00;92637.34;2116978;28;20405;-79
2023/08/31 03:10:00;;;;;;;31.58;5.57;;;;;;;8.44;100.00;92633.41;2117712;28;20019;-79
2023/08/31 03:11:03;;;;;;;33.47;5.15;;;;;;;8.47;100.00;92631.81;2117516;28;20499;-79
2023/08/31 03:12:04;;;;;;;44.15;5.00;;;;;;;8.46;100.00;92635.66;2116656;28;20415;-79
2023/08/31 03:13:05;;;;;;;88.00;5.40;;;;;;;8.51;100.00;92635.16;2117123;28;20039;-79
2023/08/31 03:14:06;;;;;;;74.00;5.28;;;;;;;8.39;100.00;92641.91;2117017;28;20031;-79
2023/08/31 03:15:07;;;;;;;46.47;4.70;;;;;;;8.21;100.00;92642.25;2114999;28;20511;-79
2023/08/31 03:16:08;;;;;;;57.53;4.97;;;;;;;8.12;100.00;92639.38;2117127;27;20492;-79
2023/08/31 03:17:09;;;;;;;14.10;4.13;;;;;;;8.21;100.00;92638.78;2117523;27;20076;-80
2023/08/31 03:18:10;;;;;;;39.33;4.63;;;;;;;8.15;100.00;92643.88;2118160;27;20072;-79
2023/08/31 03:19:11;;;;;;;16.35;4.30;;;;;;;8.22;100.00;92643.72;2109417;28;20085;-79
2023/08/31 03:20:12;;;;;;;26.08;4.28;;;;;;;8.28;100.00;92650.06;2118416;27;20035;-79
2023/08/31 03:21:13;;;;;;;72.35;5.38;;;;;;;8.18;100.00;92642.31;2121470;27;20423;-80
2023/08/31 03:22:14;;;;;;;12.40;3.70;;;;;;;8.17;100.00;92646.13;2119221;27;20076;-79
2023/08/31 03:23:15;;;;;;;33.50;4.00;;;;;;;8.15;100.00;92643.13;2118777;27;20042;-79
2023/08/31 03:24:16;;;;;;;15.07;3.13;;;;;;;8.17;100.00;92638.16;2117168;27;20055;-79
2023/08/31 03:25:17;;;;;;;43.08;4.25;;;;;;;8.18;100.00;92643.06;2118561;27;20396;-78
2023/08/31 03:26:18;;;;;;;62.22;4.68;;;;;;;8.12;100.00;92646.59;2121341;27;20019;-79
2023/08/31 03:27:20;;;;;;;9.48;3.22;;;;;;;8.17;100.00;92635.47;2101560;28;20629;-79
2023/08/31 03:28:21;;;;;;;5.20;3.20;;;;;;;8.17;100.00;92640.81;2111102;27;20020;-79
2023/08/31 03:29:22;;;;;;;30.33;3.33;;;;;;;8.08;100.00;92642.13;2112610;27;20015;-79
2023/08/31 03:30:23;;;;;;;9.25;3.28;;;;;;;8.16;100.00;92636.63;2119159;27;20027;-80
2023/08/31 03:31:26;;;;;;;11.10;3.00;;;;;;;8.15;100.00;92638.53;2112728;28;20033;-79
2023/08/31 03:32:27;;;;;;;19.73;3.58;;;;;;;8.20;100.00;92642.63;2097777;28;20024;-79
2023/08/31 03:33:28;;;;;;;8.32;3.63;;;;;;;8.07;100.00;92637.94;2109772;28;20388;-79
2023/08/31 03:34:30;;;;;;;8.60;3.00;;;;;;;8.04;100.00;92646.75;2106516;28;20040;-79
2023/08/31 03:35:32;;;;;;;9.45;3.13;;;;;;;8.10;100.00;92646.25;2118428;27;20020;-80
2023/08/31 03:36:33;;;;;;;16.50;3.97;;;;;;;8.15;100.00;92646.53;2120284;27;20033;-80
2023/08/31 03:37:34;;;;;;;60.50;4.70;;;;;;;8.12;100.00;92658.00;2117757;27;20026;-79
2023/08/31 03:38:38;;;;;;;34.03;4.35;;;;;;;8.14;100.00;92661.00;2119121;27;20127;-79
2023/08/31 03:39:41;;;;;;;18.33;3.60;;;;;;;8.20;100.00;92656.69;2118649;27;20106;-79
2023/08/31 03:40:42;;;;;;;13.02;4.15;;;;;;;8.24;100.00;92653.97;2118406;27;20064;-79
2023/08/31 03:41:43;;;;;;;12.35;3.50;;;;;;;8.23;100.00;92658.53;2119013;27;20039;-79
2023/08/31 03:42:43;;;;;;;8.05;3.45;;;;;;;8.30;100.00;92657.66;2117940;27;20032;-80
2023/08/31 03:43:44;;;;;;;8.95;3.72;;;;;;;8.30;100.00;92655.00;2118446;27;20125;-79
2023/08/31 03:44:45;;;;;;;4.07;3.13;;;;;;;8.32;100.00;92660.63;2111386;28;20023;-79
2023/08/31 03:45:46;;;;;;;13.23;3.95;;;;;;;8.25;100.00;92660.78;2118373;27;20023;-79
2023/08/31 03:46:47;;;;;;;8.73;3.65;;;;;;;8.19;100.00;92657.84;2118489;27;20019;-79
2023/08/31 03:47:48;;;;;;;6.53;3.55;;;;;;;8.16;100.00;92656.00;2116077;27;20023;-79
2023/08/31 03:48:49;;;;;;;6.82;3.60;;;;;;;8.18;100.00;92659.03;2118955;27;20168;-79
2023/08/31 03:49:50;;;;;;;7.40;3.40;;;;;;;8.23;100.00;92655.88;2118352;27;20019;-79
2023/08/31 03:50:53;;;;;;;10.88;3.85;;;;;;;8.32;100.00;92661.38;2119027;27;20019;-79
2023/08/31 03:51:53;;;;;;;6.00;3.60;;;;;;;8.26;100.00;92664.97;2114642;27;20062;-79
2023/08/31 03:52:54;;;;;;;10.13;4.05;;;;;;;8.20;100.00;92663.94;2106660;28;20046;-79
2023/08/31 03:53:56;;;;;;;10.18;4.22;;;;;;;8.24;100.00;92662.69;2118445;27;20051;-79
2023/08/31 03:54:57;;;;;;;6.35;3.90;;;;;;;8.23;100.00;92663.84;2120005;27;20071;-79
2023/08/31 03:55:58;;;;;;;7.10;3.80;;;;;;;8.30;100.00;92660.31;2117763;27;20483;-79
2023/08/31 03:56:59;;;;;;;7.38;3.58;;;;;;;8.37;100.00;92664.75;2118281;27;20027;-79
2023/08/31 03:58:00;;;;;;;5.40;4.05;;;;;;;8.39;100.00;92657.88;2116156;27;20019;-79
2023/08/31 03:59:04;;;;;;;8.90;4.03;;;;;;;8.47;100.00;92659.22;2119192;27;20430;-79
2023/08/31 04:00:09;;;;;;;7.85;3.90;;;;;;;8.36;100.00;92656.00;2119527;27;20426;-79
2023/08/31 04:01:10;;;;;;;7.47;3.90;;;;;;;8.38;100.00;92656.34;2109122;28;20089;-79
2023/08/31 04:02:11;;;;;;;5.72;3.40;;;;;;;8.43;100.00;92652.44;2093277;28;20036;-79
2023/08/31 04:03:12;;;;;;;9.85;3.70;;;;;;;8.48;100.00;92657.31;2109472;28;20587;-79
2023/08/31 04:04:13;;;;;;;7.25;4.25;;;;;;;8.54;100.00;92658.31;2109857;28;20116;-79
2023/08/31 04:05:15;;;;;;;8.63;3.85;;;;;;;8.41;100.00;92658.19;2100151;28;20020;-79
2023/08/31 04:06:16;;;;;;;7.20;3.78;;;;;;;8.47;100.00;92661.88;2117627;27;20275;-79
2023/08/31 04:07:17;;;;;;;8.45;3.88;;;;;;;8.40;100.00;92662.03;2118363;27;20020;-79
2023/08/31 04:08:18;;;;;;;7.18;3.50;;;;;;;8.41;100.00;92660.13;2118827;27;20026;-79
2023/08/31 04:09:19;;;;;;;8.73;3.45;;;;;;;8.44;100.00;92654.72;2121927;27;20027;-79
2023/08/31 04:10:20;;;;;;;5.80;3.63;;;;;;;8.41;100.00;92652.88;2109700;28;20394;-80
2023/08/31 04:11:21;;;;;;;5.32;3.67;;;;;;;8.49;100.00;92662.22;2109310;28;20040;-79
2023/08/31 04:12:22;;;;;;;6.13;3.55;;;;;;;8.46;100.00;92659.63;2115579;27;20022;-79
2023/08/31 04:13:23;;;;;;;8.55;3.75;;;;;;;8.47;100.00;92666.44;2117610;27;20054;-80
2023/08/31 04:14:28;;;;;;;10.25;3.95;;;;;;;8.46;100.00;92663.03;2117669;27;20023;-79
2023/08/31 04:15:30;;;;;;;6.38;3.50;;;;;;;8.41;100.00;92652.88;2118966;27;20015;-79
2023/08/31 04:16:32;;;;;;;5.85;3.53;;;;;;;8.49;100.00;92656.88;2118337;27;20020;-79
2023/08/31 04:17:33;;;;;;;8.48;3.80;;;;;;;8.50;100.00;92654.97;2118714;27;20023;-79
2023/08/31 04:18:34;;;;;;;7.95;4.03;;;;;;;8.50;100.00;92654.97;2115206;27;20028;-79
2023/08/31 04:19:36;;;;;;;10.20;4.13;;;;;;;8.70;100.00;92652.28;2109458;28;20088;-80
2023/08/31 04:20:37;;;;;;;9.70;3.83;;;;;;;8.80;100.00;92648.59;2118140;27;20130;-79
2023/08/31 04:21:38;;;;;;;13.23;4.40;;;;;;;8.76;100.00;92653.25;2118294;27;20024;-79
2023/08/31 04:22:39;;;;;;;6.72;3.83;;;;;;;8.81;100.00;92652.75;2116636;27;20028;-79
2023/08/31 04:23:40;;;;;;;8.85;4.28;;;;;;;8.73;100.00;92656.75;2117797;27;20031;-79
2023/08/31 04:24:41;;;;;;;5.78;3.83;;;;;;;8.71;100.00;92662.50;2119172;27;20054;-79
2023/08/31 04:25:42;;;;;;;9.38;3.63;;;;;;;8.70;100.00;92654.94;2106901;28;20024;-79
2023/08/31 04:26:44;;;;;;;8.70;3.88;;;;;;;8.71;100.00;92659.09;2113965;28;20027;-79
2023/08/31 04:27:45;;;;;;;9.07;3.75;;;;;;;8.72;100.00;92664.00;2115483;27;20030;-79
2023/08/31 04:28:46;;;;;;;16.13;4.72;;;;;;;8.67;100.00;92664.50;2117278;27;20023;-79
2023/08/31 04:29:47;;;;;;;7.22;4.00;;;;;;;8.62;100.00;92665.00;2120954;27;20455;-79
2023/08/31 04:30:49;;;;;;;13.30;4.68;;;;;;;8.61;100.00;92666.16;2114331;27;20512;-79
2023/08/31 04:31:50;;;;;;;8.73;3.75;;;;;;;8.51;100.00;92665.19;2118072;27;20122;-79
2023/08/31 04:32:51;;;;;;;10.40;3.75;;;;;;;8.42;100.00;92669.59;2115891;27;20019;-79
2023/08/31 04:33:53;;;;;;;8.40;3.80;;;;;;;8.23;100.00;92671.09;2113666;27;20027;-79
2023/08/31 04:34:54;;;;;;;6.88;3.50;;;;;;;8.37;100.00;92670.84;2117672;27;20015;-79
2023/08/31 04:35:55;;;;;;;8.23;3.83;;;;;;;8.29;100.00;92675.53;2118642;27;20050;-79
2023/08/31 04:36:56;;;;;;;8.52;3.97;;;;;;;8.24;100.00;92684.00;2105443;28;20034;-80
2023/08/31 04:37:57;;;;;;;7.78;3.97;;;;;;;8.27;100.00;92687.75;2109125;28;20032;-79
2023/08/31 04:38:58;;;;;;;10.55;4.32;;;;;;;8.24;100.00;92683.25;2108490;28;20027;-79
2023/08/31 04:39:59;;;;;;;10.55;3.97;;;;;;;8.26;100.00;92687.00;2109150;28;20028;-80
2023/08/31 04:41:01;;;;;;;8.38;4.28;;;;;;;8.35;100.00;92688.38;2118135;27;20083;-79
2023/08/31 04:42:02;;;;;;;9.77;3.72;;;;;;;8.49;100.00;92688.84;2118669;27;20039;-80
2023/08/31 04:43:03;;;;;;;7.82;3.92;;;;;;;8.58;100.00;92689.03;2109052;28;20031;-79
2023/08/31 04:44:04;;;;;;;10.85;4.05;;;;;;;8.69;100.00;92693.38;2109368;28;20028;-79
2023/08/31 04:45:06;;;;;;;9.07;4.05;;;;;;;8.74;100.00;92699.00;2116833;27;20023;-79
2023/08/31 04:46:07;;;;;;;11.98;4.60;;;;;;;8.82;100.00;92691.56;2116381;27;20036;-79
2023/08/31 04:47:08;;;;;;;11.65;4.30;;;;;;;8.77;100.00;92700.06;2118005;27;20058;-79
2023/08/31 04:48:09;;;;;;;9.02;4.30;;;;;;;8.67;100.00;92698.38;2109648;28;20503;-80
2023/08/31 04:49:10;;;;;;;10.07;4.22;;;;;;;8.64;100.00;92699.19;2106892;28;20035;-79
2023/08/31 04:50:11;;;;;;;13.88;4.30;;;;;;;8.67;100.00;92690.38;2109014;28;20028;-79
2023/08/31 04:51:32;;;;;;;17.17;4.28;;;;;;;8.57;100.00;92695.53;2110544;28;20024;-79
2023/08/31 04:52:33;;;;;;;9.82;4.13;;;;;;;8.67;100.00;92695.72;2109786;27;20020;-79